createdAt,value
2022-07-25T00:00:02.793Z,99290.38
2022-07-25T00:02:34.453Z,99289.53
2022-07-25T00:05:04.144Z,99305.06
2022-07-25T00:07:42.495Z,99303.63
2022-07-25T00:10:11.542Z,99303.03
2022-07-25T00:12:49.386Z,99303.50
2022-07-25T00:15:18.052Z,99308.94
2022-07-25T00:17:47.878Z,99307.28
2022-07-25T00:20:16.036Z,99309.19
2022-07-25T00:22:44.295Z,99306.47
2022-07-25T00:25:12.369Z,99306.47
2022-07-25T00:27:40.465Z,99301.84
2022-07-25T00:30:09.456Z,99319.13
2022-07-25T00:32:37.727Z,99311.19
2022-07-25T00:35:08.958Z,99304.06
2022-07-25T00:37:37.283Z,99314.34
2022-07-25T00:40:05.633Z,99309.13
2022-07-25T00:42:34.952Z,99307.09
2022-07-25T00:45:03.658Z,99311.72
2022-07-25T00:47:33.004Z,99307.91
2022-07-25T00:50:01.344Z,99313.00
2022-07-25T00:52:31.281Z,99310.88
2022-07-25T00:54:59.495Z,99306.28
2022-07-25T00:57:27.958Z,99309.66
2022-07-25T00:59:56.118Z,99309.38
2022-07-25T01:02:24.225Z,99315.28
2022-07-25T01:04:53.188Z,99319.53
2022-07-25T01:07:21.328Z,99332.41
2022-07-25T01:09:51.285Z,99336.63
2022-07-25T01:12:19.438Z,99337.03
2022-07-25T01:14:47.552Z,99326.72
2022-07-25T01:17:31.613Z,99330.28
2022-07-25T01:19:59.821Z,99338.00
2022-07-25T01:22:29.450Z,99340.72
2022-07-25T01:24:57.793Z,99345.47
2022-07-25T01:27:25.996Z,99347.63
2022-07-25T01:29:54.168Z,99338.97
2022-07-25T01:32:22.428Z,99338.59
2022-07-25T01:34:50.740Z,99331.28
2022-07-25T01:37:18.907Z,99339.66
2022-07-25T01:39:48.431Z,99346.00
2022-07-25T01:42:16.480Z,99357.28
2022-07-25T01:44:44.690Z,99353.72
2022-07-25T01:47:13.011Z,99363.56
2022-07-25T01:49:41.555Z,99364.38
2022-07-25T01:52:09.741Z,99357.28
2022-07-25T01:54:37.834Z,99362.72
2022-07-25T01:57:07.900Z,99369.16
2022-07-25T01:59:38.082Z,99375.66
2022-07-25T02:02:06.396Z,99359.31
2022-07-25T02:04:34.819Z,99368.09
2022-07-25T02:07:03.117Z,99369.81
2022-07-25T02:09:32.464Z,99367.50
2022-07-25T02:12:02.027Z,99373.41
2022-07-25T02:14:31.739Z,99379.91
2022-07-25T02:16:59.975Z,99375.97
2022-07-25T02:19:28.226Z,99386.38
2022-07-25T02:21:56.401Z,99388.06
2022-07-25T02:24:24.602Z,99381.56
2022-07-25T02:26:52.864Z,99385.50
2022-07-25T02:29:22.151Z,99393.66
2022-07-25T02:31:53.385Z,99392.81
2022-07-25T02:34:21.460Z,99394.50
2022-07-25T02:36:49.738Z,99392.59
2022-07-25T02:39:17.843Z,99393.22
2022-07-25T02:41:46.091Z,99395.78
2022-07-25T02:44:14.285Z,99394.25
2022-07-25T02:46:42.352Z,99394.88
2022-07-25T02:49:12.261Z,99395.94
2022-07-25T02:51:40.537Z,99399.88
2022-07-25T02:54:08.735Z,99402.38
2022-07-25T02:56:36.999Z,99404.47
2022-07-25T02:59:07.358Z,99410.75
2022-07-25T03:01:35.589Z,99406.97
2022-07-25T03:04:04.268Z,99403.19
2022-07-25T03:06:34.350Z,99409.50
2022-07-25T03:09:03.343Z,99408.03
2022-07-25T03:11:31.465Z,99414.09
2022-07-25T03:13:59.920Z,99417.03
2022-07-25T03:16:28.455Z,99417.25
2022-07-25T03:18:56.856Z,99423.75
2022-07-25T03:21:24.972Z,99416.22
2022-07-25T03:23:54.681Z,99418.94
2022-07-25T03:26:22.952Z,99423.31
2022-07-25T03:28:53.146Z,99423.75
2022-07-25T03:31:21.541Z,99423.31
2022-07-25T03:33:49.750Z,99422.88
2022-07-25T03:36:17.950Z,99438.59
2022-07-25T03:38:46.288Z,99443.81
2022-07-25T03:41:15.827Z,99436.84
2022-07-25T03:43:45.209Z,99443.34
2022-07-25T03:46:13.375Z,99437.09
2022-07-25T03:48:41.479Z,99439.22
2022-07-25T03:51:09.838Z,99445.25
2022-07-25T03:53:58.048Z,99442.06
2022-07-25T03:56:27.861Z,99447.91
2022-07-25T03:58:56.119Z,99453.59
2022-07-25T04:01:24.360Z,99453.59
2022-07-25T04:03:55.062Z,99461.31
2022-07-25T04:06:23.607Z,99464.84
2022-07-25T04:08:51.974Z,99469.03
2022-07-25T04:11:20.310Z,99473.88
2022-07-25T04:13:50.591Z,99470.06
2022-07-25T04:16:22.751Z,99465.03
2022-07-25T04:18:51.887Z,99471.75
2022-07-25T04:21:20.087Z,99479.47
2022-07-25T04:23:48.290Z,99483.41
2022-07-25T04:26:16.604Z,99485.31
2022-07-25T04:28:44.831Z,99484.44
2022-07-25T04:31:14.738Z,99487.19
2022-07-25T04:33:43.658Z,99484.00
2022-07-25T04:36:11.794Z,99487.56
2022-07-25T04:38:40.112Z,99487.19
2022-07-25T04:41:08.335Z,99500.34
2022-07-25T04:43:36.456Z,99500.34
2022-07-25T04:46:04.841Z,99505.38
2022-07-25T04:48:35.127Z,99508.91
2022-07-25T04:51:03.459Z,99509.13
2022-07-25T04:53:31.558Z,99515.63
2022-07-25T04:55:59.843Z,99515.63
2022-07-25T04:58:29.151Z,99525.72
2022-07-25T05:00:57.272Z,99522.38
2022-07-25T05:03:25.424Z,99527.44
2022-07-25T05:05:55.121Z,99528.50
2022-07-25T05:08:23.208Z,99535.00
2022-07-25T05:10:51.584Z,99538.41
2022-07-25T05:13:22.143Z,99545.59
2022-07-25T05:15:50.384Z,99544.31
2022-07-25T05:18:18.549Z,99558.53
2022-07-25T05:20:46.894Z,99555.78
2022-07-25T05:23:16.514Z,99561.91
2022-07-25T05:25:44.814Z,99566.09
2022-07-25T05:28:14.943Z,99577.72
2022-07-25T05:30:43.136Z,99580.75
2022-07-25T05:33:11.278Z,99587.94
2022-07-25T05:35:39.676Z,99585.84
2022-07-25T05:38:07.725Z,99591.38
2022-07-25T05:40:37.278Z,99597.69
2022-07-25T05:43:05.623Z,99610.22
2022-07-25T05:45:35.179Z,99613.47
2022-07-25T05:48:03.522Z,99604.59
2022-07-25T05:50:31.891Z,99608.94
2022-07-25T05:53:00.020Z,99622.34
2022-07-25T05:55:28.310Z,99619.84
2022-07-25T05:57:58.003Z,99634.53
2022-07-25T06:00:26.641Z,99627.00
2022-07-25T06:02:58.931Z,99634.56
2022-07-25T06:05:27.511Z,99641.25
2022-07-25T06:07:56.130Z,99643.78
2022-07-25T06:10:24.304Z,99663.97
2022-07-25T06:12:52.439Z,99654.09
2022-07-25T06:15:26.882Z,99669.41
2022-07-25T06:17:55.987Z,99672.72
2022-07-25T06:20:24.156Z,99672.34
2022-07-25T06:22:52.357Z,99681.53
2022-07-25T06:25:20.729Z,99687.34
2022-07-25T06:27:48.920Z,99687.78
2022-07-25T06:30:20.131Z,99695.66
2022-07-25T06:32:50.967Z,99701.16
2022-07-25T06:35:19.356Z,99703.81
2022-07-25T06:37:47.874Z,99706.34
2022-07-25T06:40:16.274Z,99716.59
2022-07-25T06:42:45.433Z,99714.91
2022-07-25T06:45:14.215Z,99714.66
2022-07-25T06:47:43.510Z,99719.22
2022-07-25T06:50:16.237Z,99723.16
2022-07-25T06:52:44.902Z,99723.72
2022-07-25T06:55:14.091Z,99733.63
2022-07-25T06:57:43.382Z,99739.69
2022-07-25T07:00:40.529Z,99738.25
2022-07-25T07:03:08.777Z,99730.75
2022-07-25T07:05:38.479Z,99745.84
2022-07-25T07:08:07.021Z,99744.34
2022-07-25T07:10:35.865Z,99748.38
2022-07-25T07:13:05.594Z,99760.56
2022-07-25T07:15:36.394Z,99765.25
2022-07-25T07:18:06.259Z,99766.44
2022-07-25T07:20:34.790Z,99781.59
2022-07-25T07:23:04.564Z,99776.09
2022-07-25T07:25:34.595Z,99780.31
2022-07-25T07:28:02.849Z,99789.56
2022-07-25T07:30:58.713Z,99790.81
2022-07-25T07:33:19.779Z,99809.44
2022-07-25T07:35:47.880Z,99802.75
2022-07-25T07:38:18.222Z,99816.13
2022-07-25T07:40:46.548Z,99812.84
2022-07-25T07:43:14.788Z,99815.75
2022-07-25T07:45:43.726Z,99819.47
2022-07-25T07:48:12.023Z,99820.91
2022-07-25T07:50:40.361Z,99815.81
2022-07-25T07:53:08.518Z,99836.72
2022-07-25T07:55:46.670Z,99831.50
2022-07-25T07:58:16.870Z,99833.28
2022-07-25T08:00:45.560Z,99838.72
2022-07-25T08:03:13.937Z,99844.19
2022-07-25T08:05:43.589Z,99840.19
2022-07-25T08:08:12.657Z,99837.44
2022-07-25T08:10:43.249Z,99844.13
2022-07-25T08:13:15.660Z,99850.31
2022-07-25T08:15:44.255Z,99853.22
2022-07-25T08:18:18.000Z,99848.06
2022-07-25T08:20:46.493Z,99852.72
2022-07-25T08:23:14.831Z,99858.47
2022-07-25T08:25:44.714Z,99867.09
2022-07-25T08:28:13.123Z,99859.00
2022-07-25T08:30:42.196Z,99858.22
2022-07-25T08:33:11.146Z,99859.84
2022-07-25T08:35:40.097Z,99867.94
2022-07-25T08:38:08.485Z,99867.69
2022-07-25T08:40:36.511Z,99860.69
2022-07-25T08:43:06.435Z,99857.91
2022-07-25T08:45:34.723Z,99868.13
2022-07-25T08:48:02.922Z,99876.94
2022-07-25T08:50:31.500Z,99879.19
2022-07-25T08:53:34.824Z,99886.88
2022-07-25T08:55:48.466Z,99891.22
2022-07-25T08:58:18.878Z,99893.00
2022-07-25T09:00:47.920Z,99893.44
2022-07-25T09:03:16.239Z,99894.38
2022-07-25T09:05:46.251Z,99904.63
2022-07-25T09:08:16.601Z,99890.88
2022-07-25T09:10:47.147Z,99893.47
2022-07-25T09:13:15.860Z,99902.75
2022-07-25T09:15:46.403Z,99902.06
2022-07-25T09:18:16.856Z,99916.78
2022-07-25T09:20:46.618Z,99918.22
2022-07-25T09:23:15.967Z,99924.66
2022-07-25T09:25:44.062Z,99936.50
2022-07-25T09:28:14.853Z,99945.00
2022-07-25T09:30:55.060Z,99936.72
2022-07-25T09:33:25.148Z,99937.94
2022-07-25T09:35:54.035Z,99947.91
2022-07-25T09:38:23.825Z,99942.59
2022-07-25T09:40:56.481Z,99948.44
2022-07-25T09:43:25.574Z,99948.09
2022-07-25T09:45:53.815Z,99955.94
2022-07-25T09:48:22.331Z,99947.31
2022-07-25T09:50:55.971Z,99957.78
2022-07-25T09:53:24.584Z,99959.56
2022-07-25T09:55:55.311Z,99972.00
2022-07-25T09:58:24.571Z,99969.31
2022-07-25T10:00:53.674Z,99967.31
2022-07-25T10:03:27.410Z,99974.38
2022-07-25T10:06:13.254Z,99981.69
2022-07-25T10:08:41.974Z,99988.00
2022-07-25T10:11:19.995Z,99992.63
2022-07-25T10:13:49.498Z,100003.38
2022-07-25T10:16:18.758Z,100003.72
2022-07-25T10:18:51.073Z,100012.75
2022-07-25T10:21:29.115Z,100021.81
2022-07-25T10:24:02.561Z,100022.69
2022-07-25T10:26:31.250Z,100018.72
2022-07-25T10:28:59.861Z,100016.31
2022-07-25T10:31:36.009Z,100018.91
2022-07-25T10:34:06.531Z,100023.16
2022-07-25T10:36:44.490Z,100033.38
2022-07-25T10:39:13.422Z,100036.78
2022-07-25T10:41:42.223Z,100038.66
2022-07-25T10:44:13.263Z,100041.66
2022-07-25T10:46:41.450Z,100042.63
2022-07-25T10:49:10.157Z,100053.63
2022-07-25T10:51:41.861Z,100050.94
2022-07-25T10:54:15.998Z,100057.78
2022-07-25T10:56:53.993Z,100058.09
2022-07-25T10:59:32.834Z,100061.25
2022-07-25T11:02:01.666Z,100075.66
2022-07-25T11:04:30.197Z,100079.44
2022-07-25T11:06:58.604Z,100082.56
2022-07-25T11:09:28.868Z,100087.00
2022-07-25T11:11:57.851Z,100087.69
2022-07-25T11:14:27.189Z,100096.03
2022-07-25T11:16:57.159Z,100097.00
2022-07-25T11:19:26.973Z,100109.09
2022-07-25T11:21:56.743Z,100110.72
2022-07-25T11:24:37.431Z,100116.72
2022-07-25T11:27:11.308Z,100113.19
2022-07-25T11:29:41.346Z,100120.69
2022-07-25T11:32:10.770Z,100118.19
2022-07-25T11:34:41.947Z,100109.78
2022-07-25T11:37:11.648Z,100115.28
2022-07-25T11:39:42.153Z,100113.66
2022-07-25T11:42:11.295Z,100121.09
2022-07-25T11:44:44.280Z,100121.25
2022-07-25T11:47:24.092Z,100125.97
2022-07-25T11:49:52.750Z,100120.28
2022-07-25T11:52:21.849Z,100120.50
2022-07-25T11:55:08.631Z,100125.44
2022-07-25T11:57:38.143Z,100132.72
2022-07-25T12:00:09.816Z,100141.00
2022-07-25T12:02:38.218Z,100155.03
2022-07-25T12:05:07.574Z,100159.44
2022-07-25T12:07:37.111Z,100149.66
2022-07-25T12:10:07.603Z,100150.09
2022-07-25T12:12:46.471Z,100151.97
2022-07-25T12:15:15.360Z,100154.75
2022-07-25T12:17:44.290Z,100158.78
2022-07-25T12:20:14.903Z,100149.66
2022-07-25T12:22:43.528Z,100170.06
2022-07-25T12:25:13.663Z,100172.91
2022-07-25T12:27:42.053Z,100175.06
2022-07-25T12:30:11.310Z,100178.50
2022-07-25T12:32:39.470Z,100186.59
2022-07-25T12:35:08.446Z,100187.25
2022-07-25T12:37:37.501Z,100199.22
2022-07-25T12:40:06.536Z,100204.16
2022-07-25T12:42:36.066Z,100210.25
2022-07-25T12:45:04.587Z,100221.66
2022-07-25T12:47:32.973Z,100221.84
2022-07-25T12:50:01.219Z,100221.13
2022-07-25T12:52:29.557Z,100222.47
2022-07-25T12:54:57.623Z,100225.81
2022-07-25T12:57:25.873Z,100218.59
2022-07-25T12:59:56.020Z,100231.78
2022-07-25T13:02:24.284Z,100237.47
2022-07-25T13:04:52.579Z,100225.16
2022-07-25T13:07:20.922Z,100229.47
2022-07-25T13:09:49.076Z,100224.53
2022-07-25T13:12:17.161Z,100225.72
2022-07-25T13:14:45.277Z,100229.38
2022-07-25T13:17:15.786Z,100242.44
2022-07-25T13:19:43.958Z,100239.97
2022-07-25T13:22:12.124Z,100244.69
2022-07-25T13:24:40.339Z,100248.41
2022-07-25T13:27:09.530Z,100252.56
2022-07-25T13:29:37.839Z,100251.22
2022-07-25T13:32:06.709Z,100258.41
2022-07-25T13:34:36.475Z,100264.91
2022-07-25T13:37:04.699Z,100262.22
2022-07-25T13:39:33.776Z,100254.47
2022-07-25T13:42:01.846Z,100244.16
2022-07-25T13:44:29.939Z,100251.78
2022-07-25T13:46:58.817Z,100247.47
2022-07-25T13:49:27.280Z,100262.78
2022-07-25T13:51:56.942Z,100260.16
2022-07-25T13:54:25.359Z,100266.63
2022-07-25T13:56:53.393Z,100282.31
2022-07-25T13:59:22.777Z,100271.41
2022-07-25T14:01:59.002Z,100280.13
2022-07-25T14:04:32.741Z,100286.50
2022-07-25T14:07:11.047Z,100280.34
2022-07-25T14:09:44.837Z,100276.09
2022-07-25T14:12:18.134Z,100295.72
2022-07-25T14:14:50.683Z,100295.16
2022-07-25T14:17:25.744Z,100296.16
2022-07-25T14:20:03.079Z,100299.81
2022-07-25T14:22:41.162Z,100307.16
2022-07-25T14:25:16.103Z,100302.09
2022-07-25T14:27:49.777Z,100304.84
2022-07-25T14:30:23.960Z,100306.75
2022-07-25T14:32:58.198Z,100307.91
2022-07-25T14:35:34.302Z,100314.47
2022-07-25T14:38:11.836Z,100317.13
2022-07-25T14:40:46.182Z,100329.72
2022-07-25T14:43:20.214Z,100325.47
2022-07-25T14:45:48.431Z,100325.72
2022-07-25T14:48:21.075Z,100339.06
2022-07-25T14:50:54.394Z,100337.56
2022-07-25T14:53:31.101Z,100342.25
2022-07-25T14:56:04.348Z,100333.72
2022-07-25T14:58:37.005Z,100339.72
2022-07-25T15:01:11.093Z,100341.53
2022-07-25T15:03:44.927Z,100353.97
2022-07-25T15:06:21.811Z,100357.78
2022-07-25T15:08:58.956Z,100346.66
2022-07-25T15:11:30.247Z,100352.56
2022-07-25T15:14:07.215Z,100357.59
2022-07-25T15:16:42.320Z,100363.50
2022-07-25T15:19:17.907Z,100371.38
2022-07-25T15:21:47.734Z,100372.34
2022-07-25T15:24:28.695Z,100378.09
2022-07-25T15:27:03.289Z,100389.72
2022-07-25T15:29:38.178Z,100387.13
2022-07-25T15:32:12.971Z,100396.81
2022-07-25T15:34:47.613Z,100407.66
2022-07-25T15:37:23.413Z,100398.06
2022-07-25T15:40:00.510Z,100395.75
2022-07-25T15:45:32.954Z,100395.97
2022-07-25T15:48:10.410Z,100404.25
2022-07-25T15:50:44.699Z,100405.50
2022-07-25T15:53:15.763Z,100403.69
2022-07-25T15:55:45.426Z,100404.81
2022-07-25T15:58:13.879Z,100398.50
2022-07-25T16:00:42.883Z,100402.94
2022-07-25T16:03:11.271Z,100401.75
2022-07-25T16:05:39.815Z,100411.19
2022-07-25T16:08:09.995Z,100411.03
2022-07-25T16:10:39.877Z,100405.88
2022-07-25T16:13:11.431Z,100407.34
2022-07-25T16:15:44.554Z,100409.69
2022-07-25T16:18:20.959Z,100413.41
2022-07-25T16:20:53.624Z,100424.28
2022-07-25T16:23:31.629Z,100430.22
2022-07-25T16:26:11.550Z,100436.56
2022-07-25T16:28:53.993Z,100432.03
2022-07-25T16:31:31.601Z,100434.28
2022-07-25T16:34:00.937Z,100448.41
2022-07-25T16:36:33.473Z,100454.38
2022-07-25T16:39:08.043Z,100459.25
2022-07-25T16:41:41.530Z,100457.31
2022-07-25T16:44:20.577Z,100458.84
2022-07-25T16:46:54.429Z,100468.91
2022-07-25T16:49:28.212Z,100476.81
2022-07-25T16:52:04.424Z,100476.06
2022-07-25T16:54:41.094Z,100481.09
2022-07-25T16:57:12.728Z,100491.16
2022-07-25T16:59:48.636Z,100493.28
2022-07-25T17:02:26.131Z,100487.94
2022-07-25T17:05:01.675Z,100493.75
2022-07-25T17:07:34.727Z,100494.00
2022-07-25T17:10:06.146Z,100491.00
2022-07-25T17:12:39.744Z,100491.81
2022-07-25T17:15:18.329Z,100491.75
2022-07-25T17:17:52.487Z,100500.34
2022-07-25T17:20:26.300Z,100505.75
2022-07-25T17:22:58.952Z,100513.13
2022-07-25T17:25:31.683Z,100525.16
2022-07-25T17:28:04.647Z,100520.34
2022-07-25T17:30:40.271Z,100524.09
2022-07-25T17:33:15.425Z,100532.34
2022-07-25T17:35:50.637Z,100534.94
2022-07-25T17:38:25.644Z,100542.69
2022-07-25T17:40:54.135Z,100543.06
2022-07-25T17:43:22.330Z,100539.56
2022-07-25T17:45:51.906Z,100542.97
2022-07-25T17:48:22.125Z,100544.81
2022-07-25T17:50:55.917Z,100552.41
2022-07-25T17:53:30.328Z,100546.91
2022-07-25T17:56:05.998Z,100550.72
2022-07-25T17:58:41.333Z,100553.63
2022-07-25T18:01:18.730Z,100553.44
2022-07-25T18:03:52.884Z,100556.66
2022-07-25T18:06:29.917Z,100553.63
2022-07-25T18:09:05.515Z,100560.75
2022-07-25T18:11:42.543Z,100562.94
2022-07-25T18:14:13.334Z,100558.66
2022-07-25T18:16:43.798Z,100560.22
2022-07-25T18:19:12.151Z,100566.56
2022-07-25T18:21:40.447Z,100562.13
2022-07-25T18:24:09.713Z,100576.97
2022-07-25T18:26:38.250Z,100574.94
2022-07-25T18:29:06.847Z,100581.72
2022-07-25T18:31:35.056Z,100575.88
2022-07-25T18:34:05.556Z,100589.00
2022-07-25T18:36:35.583Z,100582.28
2022-07-25T18:39:04.082Z,100588.66
2022-07-25T18:41:33.237Z,100590.75
2022-07-25T18:44:01.505Z,100586.97
2022-07-25T18:46:32.945Z,100584.47
2022-07-25T18:49:02.492Z,100586.63
2022-07-25T18:51:32.481Z,100582.78
2022-07-25T18:54:00.626Z,100586.22
2022-07-25T18:56:28.842Z,100580.22
2022-07-25T18:59:00.975Z,100588.03
2022-07-25T19:01:35.328Z,100595.81
2022-07-25T19:04:11.476Z,100603.63
2022-07-25T19:06:45.490Z,100605.50
2022-07-25T19:09:19.418Z,100607.84
2022-07-25T19:11:53.376Z,100611.41
2022-07-25T19:14:28.330Z,100619.66
2022-07-25T19:17:00.570Z,100619.28
2022-07-25T19:19:34.390Z,100628.94
2022-07-25T19:22:10.073Z,100634.22
2022-07-25T19:24:45.961Z,100639.69
2022-07-25T19:27:20.688Z,100634.66
2022-07-25T19:29:52.056Z,100636.56
2022-07-25T19:32:25.002Z,100640.53
2022-07-25T19:35:01.517Z,100635.25
2022-07-25T19:37:40.550Z,100634.44
2022-07-25T19:40:16.513Z,100640.31
2022-07-25T19:42:44.777Z,100641.56
2022-07-25T19:45:16.115Z,100646.19
2022-07-25T19:47:48.662Z,100651.25
2022-07-25T19:50:23.011Z,100646.56
2022-07-25T19:52:59.199Z,100648.44
2022-07-25T19:55:35.312Z,100636.47
2022-07-25T19:58:10.273Z,100644.66
2022-07-25T20:00:46.038Z,100653.25
2022-07-25T20:03:23.362Z,100658.91
2022-07-25T20:05:57.199Z,100662.50
2022-07-25T20:08:30.110Z,100670.47
2022-07-25T20:11:03.748Z,100675.06
2022-07-25T20:13:37.167Z,100672.72
2022-07-25T20:16:11.005Z,100673.75
2022-07-25T20:18:42.273Z,100678.75
2022-07-25T20:21:16.048Z,100696.34
2022-07-25T20:23:50.997Z,100693.81
2022-07-25T20:26:21.615Z,100695.91
2022-07-25T20:28:55.616Z,100704.88
2022-07-25T20:31:29.538Z,100707.41
2022-07-25T20:34:02.835Z,100708.16
2022-07-25T20:36:35.994Z,100709.66
2022-07-25T20:39:08.815Z,100714.19
2022-07-25T20:41:41.717Z,100710.44
2022-07-25T20:44:16.694Z,100715.22
2022-07-25T20:46:46.131Z,100714.75
2022-07-25T20:49:17.444Z,100717.88
2022-07-25T20:51:45.692Z,100720.28
2022-07-25T20:54:21.941Z,100723.13
2022-07-25T20:56:56.094Z,100725.94
2022-07-25T20:59:30.172Z,100730.63
2022-07-25T21:02:04.831Z,100734.41
2022-07-25T21:04:39.684Z,100733.94
2022-07-25T21:07:12.244Z,100730.19
2022-07-25T21:09:44.711Z,100740.88
2022-07-25T21:12:19.160Z,100739.97
2022-07-25T21:14:56.049Z,100738.47
2022-07-25T21:17:31.161Z,100742.25
2022-07-25T21:20:05.190Z,100747.84
2022-07-25T21:22:39.438Z,100750.09
2022-07-25T21:25:15.375Z,100758.47
2022-07-25T21:27:48.905Z,100756.13
2022-07-25T21:30:18.356Z,100758.41
2022-07-25T21:32:50.841Z,100757.56
2022-07-25T21:35:22.562Z,100765.00
2022-07-25T21:37:56.163Z,100768.50
2022-07-25T21:40:32.052Z,100772.91
2022-07-25T21:43:04.050Z,100770.75
2022-07-25T21:45:42.300Z,100776.41
2022-07-25T21:48:15.366Z,100775.09
2022-07-25T21:50:47.550Z,100772.38
2022-07-25T21:53:22.343Z,100776.91
2022-07-25T21:55:56.511Z,100783.56
2022-07-25T21:58:30.127Z,100782.41
2022-07-25T22:01:03.803Z,100784.50
2022-07-25T22:03:39.471Z,100792.94
2022-07-25T22:06:13.809Z,100791.06
2022-07-25T22:08:47.625Z,100799.63
2022-07-25T22:11:43.563Z,100807.97
2022-07-25T22:14:17.469Z,100817.72
2022-07-25T22:16:49.397Z,100809.56
2022-07-25T22:19:22.310Z,100815.00
2022-07-25T22:21:57.762Z,100824.19
2022-07-25T22:24:31.250Z,100813.06
2022-07-25T22:27:06.406Z,100813.88
2022-07-25T22:29:37.013Z,100806.28
2022-07-25T22:32:12.005Z,100806.94
2022-07-25T22:34:46.471Z,100812.13
2022-07-25T22:37:20.402Z,100813.13
2022-07-25T22:39:57.708Z,100811.44
2022-07-25T22:42:38.393Z,100822.06
2022-07-25T22:45:14.167Z,100819.69
2022-07-25T22:47:48.431Z,100818.41
2022-07-25T22:50:23.006Z,100818.28
2022-07-25T22:52:57.261Z,100822.88
2022-07-25T22:55:27.028Z,100828.84
2022-07-25T22:57:56.707Z,100830.94
2022-07-25T23:00:24.868Z,100832.44
2022-07-25T23:02:53.120Z,100832.78
2022-07-25T23:05:21.248Z,100835.69
2022-07-25T23:07:49.406Z,100835.22
2022-07-25T23:10:17.617Z,100840.75
2022-07-25T23:12:46.888Z,100843.84
2022-07-25T23:15:16.465Z,100838.03
2022-07-25T23:17:44.990Z,100838.09
2022-07-25T23:20:13.325Z,100833.38
2022-07-25T23:22:41.537Z,100839.47
2022-07-25T23:25:11.168Z,100840.72
2022-07-25T23:27:39.530Z,100857.84
2022-07-25T23:30:08.230Z,100846.97
2022-07-25T23:32:37.775Z,100849.88
2022-07-25T23:35:06.266Z,100853.16
2022-07-25T23:37:34.354Z,100855.19
2022-07-25T23:40:02.739Z,100856.91
2022-07-25T23:42:30.854Z,100861.69
2022-07-25T23:44:59.747Z,100863.16
2022-07-25T23:47:39.560Z,100859.81
2022-07-25T23:50:11.728Z,100866.44
2022-07-25T23:52:40.233Z,100864.41
2022-07-25T23:55:09.540Z,100868.97
2022-07-25T23:57:37.689Z,100872.56
